sensor_id;sensor_type;location;lat;lon;timestamp;pressure;altitude;pressure_sealevel;temperature;humidity
59877;BME280;74472;51.140;17.184;2024-01-07T00:02:21;99919.31;;;-0.33;86.95
59877;BME280;74472;51.140;17.184;2024-01-07T00:04:47;99923.03;;;-0.40;86.58
59877;BME280;74472;51.140;17.184;2024-01-07T00:07:12;99928.19;;;-0.39;86.83
59877;BME280;74472;51.140;17.184;2024-01-07T00:09:37;99928.13;;;-0.37;86.88
59877;BME280;74472;51.140;17.184;2024-01-07T00:12:03;99926.31;;;-0.35;87.03
59877;BME280;74472;51.140;17.184;2024-01-07T00:14:28;99932.19;;;-0.30;87.38
59877;BME280;74472;51.140;17.184;2024-01-07T00:16:53;99931.53;;;-0.37;86.89
59877;BME280;74472;51.140;17.184;2024-01-07T00:19:18;99929.13;;;-0.41;86.77
59877;BME280;74472;51.140;17.184;2024-01-07T00:21:44;99928.41;;;-0.47;86.82
59877;BME280;74472;51.140;17.184;2024-01-07T00:24:09;99922.50;;;-0.50;86.82
59877;BME280;74472;51.140;17.184;2024-01-07T00:26:34;99919.13;;;-0.52;86.77
59877;BME280;74472;51.140;17.184;2024-01-07T00:29:00;99925.25;;;-0.55;86.94
59877;BME280;74472;51.140;17.184;2024-01-07T00:31:25;99933.13;;;-0.58;86.95
59877;BME280;74472;51.140;17.184;2024-01-07T00:33:50;99932.41;;;-0.63;87.06
59877;BME280;74472;51.140;17.184;2024-01-07T00:36:15;99928.94;;;-0.62;87.03
59877;BME280;74472;51.140;17.184;2024-01-07T00:38:41;99934.13;;;-0.62;87.37
59877;BME280;74472;51.140;17.184;2024-01-07T00:41:06;99927.94;;;-0.58;87.38
59877;BME280;74472;51.140;17.184;2024-01-07T00:43:31;99928.88;;;-0.60;87.15
59877;BME280;74472;51.140;17.184;2024-01-07T00:45:57;99925.66;;;-0.67;87.10
59877;BME280;74472;51.140;17.184;2024-01-07T00:48:22;99928.41;;;-0.72;86.90
59877;BME280;74472;51.140;17.184;2024-01-07T00:50:47;99932.88;;;-0.77;87.22
59877;BME280;74472;51.140;17.184;2024-01-07T00:53:12;99937.19;;;-0.76;87.09
59877;BME280;74472;51.140;17.184;2024-01-07T00:55:38;99932.00;;;-0.76;87.15
59877;BME280;74472;51.140;17.184;2024-01-07T00:58:03;99928.59;;;-0.78;87.08
59877;BME280;74472;51.140;17.184;2024-01-07T01:00:28;99937.28;;;-0.79;87.37
59877;BME280;74472;51.140;17.184;2024-01-07T01:02:55;99936.41;;;-0.79;87.14
59877;BME280;74472;51.140;17.184;2024-01-07T01:05:20;99938.22;;;-0.81;86.94
59877;BME280;74472;51.140;17.184;2024-01-07T01:07:45;99936.56;;;-0.84;86.82
59877;BME280;74472;51.140;17.184;2024-01-07T01:10:11;99943.53;;;-0.86;86.81
59877;BME280;74472;51.140;17.184;2024-01-07T01:12:36;99941.91;;;-0.88;87.23
59877;BME280;74472;51.140;17.184;2024-01-07T01:15:01;99944.44;;;-0.87;86.96
59877;BME280;74472;51.140;17.184;2024-01-07T01:17:27;99949.50;;;-0.84;87.58
59877;BME280;74472;51.140;17.184;2024-01-07T01:19:52;99946.09;;;-0.84;87.26
59877;BME280;74472;51.140;17.184;2024-01-07T01:22:17;99952.06;;;-0.82;87.00
59877;BME280;74472;51.140;17.184;2024-01-07T01:24:42;99952.94;;;-0.83;86.79
59877;BME280;74472;51.140;17.184;2024-01-07T01:27:11;99959.03;;;-0.84;87.01
59877;BME280;74472;51.140;17.184;2024-01-07T01:29:36;99949.56;;;-0.85;87.10
59877;BME280;74472;51.140;17.184;2024-01-07T01:32:01;99949.59;;;-0.87;86.72
59877;BME280;74472;51.140;17.184;2024-01-07T01:34:27;99954.69;;;-0.84;86.71
59877;BME280;74472;51.140;17.184;2024-01-07T01:36:52;99956.56;;;-0.89;86.26
59877;BME280;74472;51.140;17.184;2024-01-07T01:39:17;99953.13;;;-0.89;86.59
59877;BME280;74472;51.140;17.184;2024-01-07T01:41:43;99955.72;;;-0.89;85.76
59877;BME280;74472;51.140;17.184;2024-01-07T01:44:08;99958.41;;;-0.92;85.79
59877;BME280;74472;51.140;17.184;2024-01-07T01:46:34;99956.78;;;-0.95;85.86
59877;BME280;74472;51.140;17.184;2024-01-07T01:49:00;99959.41;;;-0.97;85.79
59877;BME280;74472;51.140;17.184;2024-01-07T01:51:26;99959.50;;;-1.00;86.03
59877;BME280;74472;51.140;17.184;2024-01-07T01:53:51;99964.59;;;-0.97;86.09
59877;BME280;74472;51.140;17.184;2024-01-07T01:56:19;99975.13;;;-1.03;85.96
59877;BME280;74472;51.140;17.184;2024-01-07T01:58:46;99977.91;;;-1.09;85.76
59877;BME280;74472;51.140;17.184;2024-01-07T02:01:12;99975.41;;;-1.12;86.13
59877;BME280;74472;51.140;17.184;2024-01-07T02:03:38;99967.94;;;-1.21;85.94
59877;BME280;74472;51.140;17.184;2024-01-07T02:06:03;99972.47;;;-1.28;85.98
59877;BME280;74472;51.140;17.184;2024-01-07T02:08:29;99968.25;;;-1.32;86.30
59877;BME280;74472;51.140;17.184;2024-01-07T02:10:55;99966.63;;;-1.34;86.45
59877;BME280;74472;51.140;17.184;2024-01-07T02:13:20;99973.47;;;-1.33;86.12
59877;BME280;74472;51.140;17.184;2024-01-07T02:15:45;99970.97;;;-1.36;86.50
59877;BME280;74472;51.140;17.184;2024-01-07T02:18:10;99971.91;;;-1.39;86.60
59877;BME280;74472;51.140;17.184;2024-01-07T02:20:36;99967.72;;;-1.43;86.44
59877;BME280;74472;51.140;17.184;2024-01-07T02:23:02;99972.91;;;-1.43;86.36
59877;BME280;74472;51.140;17.184;2024-01-07T02:25:28;99963.53;;;-1.47;86.19
59877;BME280;74472;51.140;17.184;2024-01-07T02:27:53;99970.41;;;-1.46;86.55
59877;BME280;74472;51.140;17.184;2024-01-07T02:30:18;99980.59;;;-1.42;86.54
59877;BME280;74472;51.140;17.184;2024-01-07T02:32:43;99978.81;;;-1.38;86.77
59877;BME280;74472;51.140;17.184;2024-01-07T02:35:09;99977.75;;;-1.32;87.11
59877;BME280;74472;51.140;17.184;2024-01-07T02:37:34;99981.97;;;-1.28;86.61
59877;BME280;74472;51.140;17.184;2024-01-07T02:40:00;99981.06;;;-1.27;86.45
59877;BME280;74472;51.140;17.184;2024-01-07T02:42:25;99981.75;;;-1.22;86.81
59877;BME280;74472;51.140;17.184;2024-01-07T02:44:50;99977.34;;;-1.19;86.87
59877;BME280;74472;51.140;17.184;2024-01-07T02:47:15;99975.47;;;-1.13;86.96
59877;BME280;74472;51.140;17.184;2024-01-07T02:49:41;99975.53;;;-1.15;86.32
59877;BME280;74472;51.140;17.184;2024-01-07T02:52:06;99975.56;;;-1.16;85.97
59877;BME280;74472;51.140;17.184;2024-01-07T02:54:31;99972.22;;;-1.20;86.17
59877;BME280;74472;51.140;17.184;2024-01-07T02:56:56;99975.66;;;-1.20;86.22
59877;BME280;74472;51.140;17.184;2024-01-07T02:59:22;99976.66;;;-1.25;85.97
59877;BME280;74472;51.140;17.184;2024-01-07T03:01:47;99982.00;;;-1.30;86.21
59877;BME280;74472;51.140;17.184;2024-01-07T03:04:15;99984.66;;;-1.31;86.06
59877;BME280;74472;51.140;17.184;2024-01-07T03:06:40;99989.81;;;-1.31;86.20
59877;BME280;74472;51.140;17.184;2024-01-07T03:09:06;99988.91;;;-1.30;86.15
59877;BME280;74472;51.140;17.184;2024-01-07T03:11:32;99990.78;;;-1.35;86.16
59877;BME280;74472;51.140;17.184;2024-01-07T03:13:58;99990.69;;;-1.32;86.07
59877;BME280;74472;51.140;17.184;2024-01-07T03:16:24;99990.94;;;-1.40;85.73
59877;BME280;74472;51.140;17.184;2024-01-07T03:18:50;99989.44;;;-1.49;85.68
59877;BME280;74472;51.140;17.184;2024-01-07T03:21:22;99989.59;;;-1.55;85.85
59877;BME280;74472;51.140;17.184;2024-01-07T03:23:49;99993.09;;;-1.56;85.42
59877;BME280;74472;51.140;17.184;2024-01-07T03:26:16;99991.56;;;-1.63;85.25
59877;BME280;74472;51.140;17.184;2024-01-07T03:28:41;99989.84;;;-1.62;85.29
59877;BME280;74472;51.140;17.184;2024-01-07T03:31:15;99999.34;;;-1.63;85.14
59877;BME280;74472;51.140;17.184;2024-01-07T03:33:41;99993.34;;;-1.65;85.06
59877;BME280;74472;51.140;17.184;2024-01-07T03:36:08;100006.19;;;-1.62;85.00
59877;BME280;74472;51.140;17.184;2024-01-07T03:38:34;100004.50;;;-1.63;84.88
59877;BME280;74472;51.140;17.184;2024-01-07T03:41:00;100008.69;;;-1.57;84.83
59877;BME280;74472;51.140;17.184;2024-01-07T03:43:25;100002.66;;;-1.58;84.60
59877;BME280;74472;51.140;17.184;2024-01-07T03:45:50;100004.22;;;-1.52;84.93
59877;BME280;74472;51.140;17.184;2024-01-07T03:48:16;100008.38;;;-1.47;84.67
59877;BME280;74472;51.140;17.184;2024-01-07T03:50:41;100008.41;;;-1.48;84.13
59877;BME280;74472;51.140;17.184;2024-01-07T03:53:06;100012.81;;;-1.52;83.88
59877;BME280;74472;51.140;17.184;2024-01-07T03:55:31;100004.47;;;-1.61;83.42
59877;BME280;74472;51.140;17.184;2024-01-07T03:57:57;100013.88;;;-1.59;84.01
59877;BME280;74472;51.140;17.184;2024-01-07T04:00:22;100016.38;;;-1.56;83.84
59877;BME280;74472;51.140;17.184;2024-01-07T04:02:47;100011.28;;;-1.57;83.77
59877;BME280;74472;51.140;17.184;2024-01-07T04:05:13;100025.06;;;-1.58;83.55
59877;BME280;74472;51.140;17.184;2024-01-07T04:07:40;100026.81;;;-1.59;83.66
59877;BME280;74472;51.140;17.184;2024-01-07T04:10:05;100030.31;;;-1.60;83.69
59877;BME280;74472;51.140;17.184;2024-01-07T04:12:31;100024.38;;;-1.63;83.51
59877;BME280;74472;51.140;17.184;2024-01-07T04:14:56;100019.22;;;-1.65;83.17
59877;BME280;74472;51.140;17.184;2024-01-07T04:17:21;100022.72;;;-1.66;83.50
59877;BME280;74472;51.140;17.184;2024-01-07T04:19:47;100033.97;;;-1.67;83.51
59877;BME280;74472;51.140;17.184;2024-01-07T04:22:12;100035.72;;;-1.69;83.21
59877;BME280;74472;51.140;17.184;2024-01-07T04:24:40;100038.38;;;-1.71;82.97
59877;BME280;74472;51.140;17.184;2024-01-07T04:27:06;100041.06;;;-1.75;83.01
59877;BME280;74472;51.140;17.184;2024-01-07T04:29:31;100048.13;;;-1.80;82.87
59877;BME280;74472;51.140;17.184;2024-01-07T04:31:57;100040.47;;;-1.85;83.10
59877;BME280;74472;51.140;17.184;2024-01-07T04:34:22;100035.34;;;-1.88;83.00
59877;BME280;74472;51.140;17.184;2024-01-07T04:36:47;100039.75;;;-1.92;82.98
59877;BME280;74472;51.140;17.184;2024-01-07T04:39:13;100047.56;;;-1.93;83.05
59877;BME280;74472;51.140;17.184;2024-01-07T04:41:38;100049.28;;;-1.92;83.34
59877;BME280;74472;51.140;17.184;2024-01-07T04:44:03;100052.75;;;-1.93;82.93
59877;BME280;74472;51.140;17.184;2024-01-07T04:46:29;100054.50;;;-1.94;82.88
59877;BME280;74472;51.140;17.184;2024-01-07T04:48:54;100057.16;;;-1.97;82.91
59877;BME280;74472;51.140;17.184;2024-01-07T04:51:19;100063.25;;;-1.99;82.42
59877;BME280;74472;51.140;17.184;2024-01-07T04:53:44;100064.16;;;-2.00;82.53
59877;BME280;74472;51.140;17.184;2024-01-07T04:56:11;100052.22;;;-2.06;82.95
59877;BME280;74472;51.140;17.184;2024-01-07T04:58:36;100063.38;;;-2.04;82.50
59877;BME280;74472;51.140;17.184;2024-01-07T05:01:01;100061.72;;;-2.08;82.56
59877;BME280;74472;51.140;17.184;2024-01-07T05:03:27;100074.63;;;-2.06;82.57
59877;BME280;74472;51.140;17.184;2024-01-07T05:05:52;100069.50;;;-2.08;82.83
59877;BME280;74472;51.140;17.184;2024-01-07T05:08:17;100078.91;;;-2.04;82.99
59877;BME280;74472;51.140;17.184;2024-01-07T05:10:43;100072.00;;;-2.05;82.79
59877;BME280;74472;51.140;17.184;2024-01-07T05:13:08;100076.25;;;-2.02;82.70
59877;BME280;74472;51.140;17.184;2024-01-07T05:15:33;100077.91;;;-2.00;82.89
59877;BME280;74472;51.140;17.184;2024-01-07T05:17:59;100076.91;;;-1.94;82.84
59877;BME280;74472;51.140;17.184;2024-01-07T05:20:24;100086.31;;;-1.90;83.02
59877;BME280;74472;51.140;17.184;2024-01-07T05:22:49;100094.78;;;-1.85;82.77
59877;BME280;74472;51.140;17.184;2024-01-07T05:25:15;100093.09;;;-1.86;82.89
59877;BME280;74472;51.140;17.184;2024-01-07T05:27:40;100094.97;;;-1.93;82.02
59877;BME280;74472;51.140;17.184;2024-01-07T05:30:06;100108.94;;;-2.00;81.98
59877;BME280;74472;51.140;17.184;2024-01-07T05:32:32;100110.78;;;-2.05;82.09
59877;BME280;74472;51.140;17.184;2024-01-07T05:34:58;100110.00;;;-2.07;82.21
59877;BME280;74472;51.140;17.184;2024-01-07T05:37:23;100104.06;;;-2.12;81.97
59877;BME280;74472;51.140;17.184;2024-01-07T05:39:48;100110.22;;;-2.16;81.90
59877;BME280;74472;51.140;17.184;2024-01-07T05:42:14;100109.44;;;-2.21;82.14
59877;BME280;74472;51.140;17.184;2024-01-07T05:44:39;100109.44;;;-2.21;82.08
59877;BME280;74472;51.140;17.184;2024-01-07T05:47:05;100108.59;;;-2.22;81.84
59877;BME280;74472;51.140;17.184;2024-01-07T05:49:31;100107.84;;;-2.25;81.87
59877;BME280;74472;51.140;17.184;2024-01-07T05:51:56;100111.31;;;-2.26;81.84
59877;BME280;74472;51.140;17.184;2024-01-07T05:54:21;100113.00;;;-2.25;81.97
59877;BME280;74472;51.140;17.184;2024-01-07T05:56:47;100116.41;;;-2.23;82.25
59877;BME280;74472;51.140;17.184;2024-01-07T05:59:13;100108.59;;;-2.22;82.19
59877;BME280;74472;51.140;17.184;2024-01-07T06:01:38;100112.03;;;-2.20;81.84
59877;BME280;74472;51.140;17.184;2024-01-07T06:04:03;100120.72;;;-2.24;81.64
59877;BME280;74472;51.140;17.184;2024-01-07T06:06:29;100118.22;;;-2.27;81.47
59877;BME280;74472;51.140;17.184;2024-01-07T06:08:54;100129.41;;;-2.26;81.52
59877;BME280;74472;51.140;17.184;2024-01-07T06:11:20;100129.34;;;-2.25;81.77
59877;BME280;74472;51.140;17.184;2024-01-07T06:13:46;100125.97;;;-2.27;81.51
59877;BME280;74472;51.140;17.184;2024-01-07T06:16:11;100127.63;;;-2.24;81.50
59877;BME280;74472;51.140;17.184;2024-01-07T06:18:36;100133.63;;;-2.24;81.72
59877;BME280;74472;51.140;17.184;2024-01-07T06:21:02;100134.50;;;-2.23;81.58
59877;BME280;74472;51.140;17.184;2024-01-07T06:23:27;100139.63;;;-2.22;81.79
59877;BME280;74472;51.140;17.184;2024-01-07T06:25:53;100138.72;;;-2.19;81.72
59877;BME280;74472;51.140;17.184;2024-01-07T06:28:18;100142.13;;;-2.17;81.54
59877;BME280;74472;51.140;17.184;2024-01-07T06:30:43;100143.81;;;-2.16;81.07
59877;BME280;74472;51.140;17.184;2024-01-07T06:33:09;100147.31;;;-2.19;81.46
59877;BME280;74472;51.140;17.184;2024-01-07T06:35:34;100155.13;;;-2.22;81.21
59877;BME280;74472;51.140;17.184;2024-01-07T06:37:59;100150.03;;;-2.23;81.00
59877;BME280;74472;51.140;17.184;2024-01-07T06:40:25;100152.47;;;-2.19;81.33
59877;BME280;74472;51.140;17.184;2024-01-07T06:42:50;100162.88;;;-2.20;81.11
59877;BME280;74472;51.140;17.184;2024-01-07T06:45:16;100174.97;;;-2.22;81.10
59877;BME280;74472;51.140;17.184;2024-01-07T06:47:42;100167.22;;;-2.24;81.20
59877;BME280;74472;51.140;17.184;2024-01-07T06:50:08;100166.44;;;-2.26;80.96
59877;BME280;74472;51.140;17.184;2024-01-07T06:52:33;100167.34;;;-2.27;81.03
59877;BME280;74472;51.140;17.184;2024-01-07T06:55:02;100176.88;;;-2.30;80.71
59877;BME280;74472;51.140;17.184;2024-01-07T06:57:27;100184.59;;;-2.29;80.57
59877;BME280;74472;51.140;17.184;2024-01-07T06:59:55;100171.75;;;-2.32;80.88
59877;BME280;74472;51.140;17.184;2024-01-07T07:02:21;100175.25;;;-2.34;80.85
59877;BME280;74472;51.140;17.184;2024-01-07T07:04:47;100169.22;;;-2.33;80.49
59877;BME280;74472;51.140;17.184;2024-01-07T07:07:17;100146.28;;;-2.50;80.06
59877;BME280;74472;51.140;17.184;2024-01-07T07:09:42;100165.25;;;-2.50;80.20
59877;BME280;74472;51.140;17.184;2024-01-07T07:12:07;100179.88;;;-2.50;79.91
59877;BME280;74472;51.140;17.184;2024-01-07T07:14:33;100191.03;;;-2.47;79.90
59877;BME280;74472;51.140;17.184;2024-01-07T07:16:58;100158.66;;;-2.65;80.64
59877;BME280;74472;51.140;17.184;2024-01-07T07:19:24;100202.94;;;-2.40;80.24
59877;BME280;74472;51.140;17.184;2024-01-07T07:21:49;100208.22;;;-2.46;79.41
59877;BME280;74472;51.140;17.184;2024-01-07T07:24:15;100202.28;;;-2.51;79.39
59877;BME280;74472;51.140;17.184;2024-01-07T07:26:40;100208.34;;;-2.52;79.65
59877;BME280;74472;51.140;17.184;2024-01-07T07:29:07;100218.75;;;-2.55;79.37
59877;BME280;74472;51.140;17.184;2024-01-07T07:31:35;100208.47;;;-2.58;79.72
59877;BME280;74472;51.140;17.184;2024-01-07T07:34:00;100213.63;;;-2.56;79.38
59877;BME280;74472;51.140;17.184;2024-01-07T07:36:25;100219.72;;;-2.59;79.18
59877;BME280;74472;51.140;17.184;2024-01-07T07:38:51;100216.28;;;-2.60;79.42
59877;BME280;74472;51.140;17.184;2024-01-07T07:41:16;100210.22;;;-2.60;79.69
59877;BME280;74472;51.140;17.184;2024-01-07T07:43:42;100214.44;;;-2.54;79.78
59877;BME280;74472;51.140;17.184;2024-01-07T07:46:07;100216.16;;;-2.55;79.72
59877;BME280;74472;51.140;17.184;2024-01-07T07:48:32;100216.13;;;-2.53;79.56
59877;BME280;74472;51.140;17.184;2024-01-07T07:50:58;100215.28;;;-2.54;79.46
59877;BME280;74472;51.140;17.184;2024-01-07T07:53:23;100218.75;;;-2.55;79.76
59877;BME280;74472;51.140;17.184;2024-01-07T07:55:48;100218.81;;;-2.56;79.48
59877;BME280;74472;51.140;17.184;2024-01-07T07:58:15;100220.50;;;-2.55;79.85
59877;BME280;74472;51.140;17.184;2024-01-07T08:00:40;100229.84;;;-2.50;79.61
59877;BME280;74472;51.140;17.184;2024-01-07T08:03:05;100235.94;;;-2.52;79.23
59877;BME280;74472;51.140;17.184;2024-01-07T08:05:31;100246.34;;;-2.57;79.26
59877;BME280;74472;51.140;17.184;2024-01-07T08:07:56;100243.81;;;-2.60;79.10
59877;BME280;74472;51.140;17.184;2024-01-07T08:10:22;100243.00;;;-2.62;79.20
59877;BME280;74472;51.140;17.184;2024-01-07T08:12:48;100245.63;;;-2.64;79.15
59877;BME280;74472;51.140;17.184;2024-01-07T08:15:14;100243.03;;;-2.64;79.38
59877;BME280;74472;51.140;17.184;2024-01-07T08:17:40;100248.13;;;-2.61;79.02
59877;BME280;74472;51.140;17.184;2024-01-07T08:20:05;100247.28;;;-2.61;79.30
59877;BME280;74472;51.140;17.184;2024-01-07T08:22:31;100243.91;;;-2.65;79.24
59877;BME280;74472;51.140;17.184;2024-01-07T08:24:56;100246.50;;;-2.65;79.13
59877;BME280;74472;51.140;17.184;2024-01-07T08:27:21;100254.25;;;-2.63;79.08
59877;BME280;74472;51.140;17.184;2024-01-07T08:29:47;100254.16;;;-2.60;79.28
59877;BME280;74472;51.140;17.184;2024-01-07T08:32:12;100259.25;;;-2.55;79.42
59877;BME280;74472;51.140;17.184;2024-01-07T08:34:38;100257.56;;;-2.58;78.99
59877;BME280;74472;51.140;17.184;2024-01-07T08:37:04;100265.31;;;-2.56;79.26
59877;BME280;74472;51.140;17.184;2024-01-07T08:39:29;100257.56;;;-2.58;79.47
59877;BME280;74472;51.140;17.184;2024-01-07T08:41:55;100265.22;;;-2.53;79.39
59877;BME280;74472;51.140;17.184;2024-01-07T08:44:20;100267.78;;;-2.52;79.19
59877;BME280;74472;51.140;17.184;2024-01-07T08:46:45;100280.66;;;-2.50;78.83
59877;BME280;74472;51.140;17.184;2024-01-07T08:49:11;100276.50;;;-2.57;78.61
59877;BME280;74472;51.140;17.184;2024-01-07T08:51:36;100283.41;;;-2.58;78.83
59877;BME280;74472;51.140;17.184;2024-01-07T08:54:02;100282.56;;;-2.60;78.75
59877;BME280;74472;51.140;17.184;2024-01-07T08:56:28;100285.09;;;-2.55;78.74
59877;BME280;74472;51.140;17.184;2024-01-07T08:58:53;100287.63;;;-2.54;78.98
59877;BME280;74472;51.140;17.184;2024-01-07T09:01:19;100281.66;;;-2.57;78.65
59877;BME280;74472;51.140;17.184;2024-01-07T09:03:44;100286.81;;;-2.56;78.88
59877;BME280;74472;51.140;17.184;2024-01-07T09:06:09;100284.13;;;-2.51;79.06
59877;BME280;74472;51.140;17.184;2024-01-07T09:08:34;100290.16;;;-2.51;79.08
59877;BME280;74472;51.140;17.184;2024-01-07T09:11:01;100281.47;;;-2.47;79.08
59877;BME280;74472;51.140;17.184;2024-01-07T09:13:27;100295.25;;;-2.48;78.81
59877;BME280;74472;51.140;17.184;2024-01-07T09:15:52;100288.28;;;-2.44;78.86
59877;BME280;74472;51.140;17.184;2024-01-07T09:18:17;100290.81;;;-2.41;79.02
59877;BME280;74472;51.140;17.184;2024-01-07T09:20:44;100298.44;;;-2.33;79.00
59877;BME280;74472;51.140;17.184;2024-01-07T09:23:09;100298.34;;;-2.29;79.42
59877;BME280;74472;51.140;17.184;2024-01-07T09:25:34;100297.50;;;-2.31;79.35
59877;BME280;74472;51.140;17.184;2024-01-07T09:28:00;100298.28;;;-2.27;78.92
59877;BME280;74472;51.140;17.184;2024-01-07T09:30:25;100312.16;;;-2.30;78.45
59877;BME280;74472;51.140;17.184;2024-01-07T09:32:51;100299.31;;;-2.34;78.73
59877;BME280;74472;51.140;17.184;2024-01-07T09:35:17;100297.53;;;-2.32;78.66
59877;BME280;74472;51.140;17.184;2024-01-07T09:37:42;100306.09;;;-2.30;78.20
59877;BME280;74472;51.140;17.184;2024-01-07T09:40:08;100294.97;;;-2.32;78.33
59877;BME280;74472;51.140;17.184;2024-01-07T09:42:33;100300.06;;;-2.29;78.73
59877;BME280;74472;51.140;17.184;2024-01-07T09:45:02;100291.44;;;-2.28;78.40
59877;BME280;74472;51.140;17.184;2024-01-07T09:47:29;100299.97;;;-2.25;78.50
59877;BME280;74472;51.140;17.184;2024-01-07T09:49:54;100293.91;;;-2.24;78.72
59877;BME280;74472;51.140;17.184;2024-01-07T09:52:20;100298.16;;;-2.20;78.48
59877;BME280;74472;51.140;17.184;2024-01-07T09:54:50;100292.06;;;-2.17;78.45
59877;BME280;74472;51.140;17.184;2024-01-07T09:57:18;100291.31;;;-2.24;78.16
59877;BME280;74472;51.140;17.184;2024-01-07T09:59:45;100295.69;;;-2.27;78.03
59877;BME280;74472;51.140;17.184;2024-01-07T10:02:11;100294.91;;;-2.31;77.99
59877;BME280;74472;51.140;17.184;2024-01-07T10:04:36;100282.94;;;-2.35;77.86
59877;BME280;74472;51.140;17.184;2024-01-07T10:07:02;100287.25;;;-2.36;77.94
59877;BME280;74472;51.140;17.184;2024-01-07T10:09:33;100290.75;;;-2.37;77.61
59877;BME280;74472;51.140;17.184;2024-01-07T10:11:59;100285.63;;;-2.40;77.79
59877;BME280;74472;51.140;17.184;2024-01-07T10:14:24;100295.94;;;-2.38;78.06
59877;BME280;74472;51.140;17.184;2024-01-07T10:16:51;100280.47;;;-2.40;77.78
59877;BME280;74472;51.140;17.184;2024-01-07T10:19:23;100289.97;;;-2.42;77.45
59877;BME280;74472;51.140;17.184;2024-01-07T10:22:03;100289.22;;;-2.47;77.49
59877;BME280;74472;51.140;17.184;2024-01-07T10:24:35;100290.97;;;-2.49;77.65
59877;BME280;74472;51.140;17.184;2024-01-07T10:27:03;100293.56;;;-2.49;78.06
59877;BME280;74472;51.140;17.184;2024-01-07T10:29:28;100298.69;;;-2.46;78.00
59877;BME280;74472;51.140;17.184;2024-01-07T10:31:57;100300.44;;;-2.48;77.52
59877;BME280;74472;51.140;17.184;2024-01-07T10:34:23;100301.25;;;-2.46;77.49
59877;BME280;74472;51.140;17.184;2024-01-07T10:36:50;100302.16;;;-2.48;77.20
59877;BME280;74472;51.140;17.184;2024-01-07T10:39:16;100301.28;;;-2.47;77.85
59877;BME280;74472;51.140;17.184;2024-01-07T10:41:42;100295.19;;;-2.45;77.52
59877;BME280;74472;51.140;17.184;2024-01-07T10:44:08;100295.25;;;-2.46;77.13
59877;BME280;74472;51.140;17.184;2024-01-07T10:46:34;100291.81;;;-2.47;77.00
59877;BME280;74472;51.140;17.184;2024-01-07T10:49:00;100287.50;;;-2.48;76.96
59877;BME280;74472;51.140;17.184;2024-01-07T10:51:31;100283.22;;;-2.49;77.17
59877;BME280;74472;51.140;17.184;2024-01-07T10:53:59;100300.28;;;-2.40;77.21
59877;BME280;74472;51.140;17.184;2024-01-07T10:56:29;100291.78;;;-2.45;76.23
59877;BME280;74472;51.140;17.184;2024-01-07T10:58:57;100300.44;;;-2.48;76.69
59877;BME280;74472;51.140;17.184;2024-01-07T11:01:23;100300.53;;;-2.54;76.07
59877;BME280;74472;51.140;17.184;2024-01-07T11:04:00;100294.63;;;-2.61;76.46
59877;BME280;74472;51.140;17.184;2024-01-07T11:06:41;100294.69;;;-2.62;76.65
59877;BME280;74472;51.140;17.184;2024-01-07T11:09:14;100293.78;;;-2.60;76.84
59877;BME280;74472;51.140;17.184;2024-01-07T11:11:43;100293.75;;;-2.58;76.76
59877;BME280;74472;51.140;17.184;2024-01-07T11:14:34;100298.00;;;-2.55;76.81
59877;BME280;74472;51.140;17.184;2024-01-07T11:16:59;100290.25;;;-2.57;76.52
59877;BME280;74472;51.140;17.184;2024-01-07T11:19:25;100291.94;;;-2.54;77.09
59877;BME280;74472;51.140;17.184;2024-01-07T11:21:51;100291.94;;;-2.54;76.22
59877;BME280;74472;51.140;17.184;2024-01-07T11:24:38;100290.25;;;-2.57;76.42
59877;BME280;74472;51.140;17.184;2024-01-07T11:27:04;100291.19;;;-2.60;76.07
59877;BME280;74472;51.140;17.184;2024-01-07T11:29:31;100296.38;;;-2.61;76.50
59877;BME280;74472;51.140;17.184;2024-01-07T11:31:57;100297.22;;;-2.61;76.30
59877;BME280;74472;51.140;17.184;2024-01-07T11:34:41;100296.31;;;-2.58;76.22
59877;BME280;74472;51.140;17.184;2024-01-07T11:37:12;100296.44;;;-2.64;75.79
59877;BME280;74472;51.140;17.184;2024-01-07T11:39:41;100293.03;;;-2.66;75.98
59877;BME280;74472;51.140;17.184;2024-01-07T11:42:07;100299.00;;;-2.64;76.32
59877;BME280;74472;51.140;17.184;2024-01-07T11:44:35;100298.13;;;-2.62;76.10
59877;BME280;74472;51.140;17.184;2024-01-07T11:47:03;100290.38;;;-2.62;76.14
59877;BME280;74472;51.140;17.184;2024-01-07T11:49:29;100287.78;;;-2.62;76.13
59877;BME280;74472;51.140;17.184;2024-01-07T11:51:55;100296.44;;;-2.64;76.16
59877;BME280;74472;51.140;17.184;2024-01-07T11:54:20;100296.44;;;-2.64;75.69
59877;BME280;74472;51.140;17.184;2024-01-07T11:56:46;100290.47;;;-2.66;76.12
59877;BME280;74472;51.140;17.184;2024-01-07T11:59:11;100287.88;;;-2.68;75.60
59877;BME280;74472;51.140;17.184;2024-01-07T12:01:36;100280.19;;;-2.71;75.82
59877;BME280;74472;51.140;17.184;2024-01-07T12:04:01;100288.75;;;-2.67;75.86
59877;BME280;74472;51.140;17.184;2024-01-07T12:06:27;100283.63;;;-2.70;75.85
59877;BME280;74472;51.140;17.184;2024-01-07T12:08:52;100289.72;;;-2.73;75.82
59877;BME280;74472;51.140;17.184;2024-01-07T12:11:18;100277.78;;;-2.78;75.50
59877;BME280;74472;51.140;17.184;2024-01-07T12:13:44;100285.56;;;-2.81;75.52
59877;BME280;74472;51.140;17.184;2024-01-07T12:16:10;100293.31;;;-2.81;76.04
59877;BME280;74472;51.140;17.184;2024-01-07T12:18:36;100296.75;;;-2.79;75.57
59877;BME280;74472;51.140;17.184;2024-01-07T12:21:02;100292.50;;;-2.84;75.82
59877;BME280;74472;51.140;17.184;2024-01-07T12:23:28;100296.69;;;-2.78;76.15
59877;BME280;74472;51.140;17.184;2024-01-07T12:25:54;100295.84;;;-2.78;76.06
59877;BME280;74472;51.140;17.184;2024-01-07T12:28:21;100301.91;;;-2.79;75.82
59877;BME280;74472;51.140;17.184;2024-01-07T12:30:49;100296.00;;;-2.88;75.94
59877;BME280;74472;51.140;17.184;2024-01-07T12:33:19;100308.94;;;-2.88;75.65
59877;BME280;74472;51.140;17.184;2024-01-07T12:35:46;100321.09;;;-2.93;75.74
59877;BME280;74472;51.140;17.184;2024-01-07T12:38:12;100317.75;;;-3.01;75.40